createdAt,value
2022-12-18T00:01:20.191Z,82.68
2022-12-18T00:06:40.827Z,82.69
2022-12-18T00:17:36.462Z,82.45
2022-12-18T00:22:57.455Z,82.47
2022-12-18T00:28:18.244Z,82.44
2022-12-18T00:33:39.519Z,82.51
2022-12-18T00:39:05.605Z,82.54
2022-12-18T00:44:26.040Z,82.49
2022-12-18T00:49:46.391Z,82.53
2022-12-18T00:55:07.831Z,82.54
2022-12-18T01:00:28.373Z,82.65
2022-12-18T01:05:49.079Z,82.50
2022-12-18T01:11:12.785Z,82.69
2022-12-18T01:16:33.237Z,82.65
2022-12-18T01:21:53.582Z,82.45
2022-12-18T01:27:14.419Z,82.46
2022-12-18T01:32:35.363Z,82.42
2022-12-18T01:37:56.860Z,82.20
2022-12-18T01:43:17.174Z,82.60
2022-12-18T01:48:39.678Z,82.53
2022-12-18T01:54:00.844Z,82.74
2022-12-18T01:59:21.398Z,82.82
2022-12-18T02:04:46.324Z,82.80
2022-12-18T02:10:26.437Z,82.58
2022-12-18T02:15:57.350Z,82.56
2022-12-18T02:21:40.087Z,82.42
2022-12-18T02:27:04.379Z,82.28
2022-12-18T02:32:37.463Z,82.33
2022-12-18T02:37:58.984Z,82.19
2022-12-18T02:43:21.847Z,82.15
2022-12-18T02:48:43.871Z,82.11
2022-12-18T02:54:22.540Z,82.16
2022-12-18T02:59:59.035Z,82.08
2022-12-18T03:05:34.166Z,82.00
2022-12-18T03:11:07.711Z,81.76
2022-12-18T03:16:32.016Z,81.72
2022-12-18T03:21:56.724Z,81.63
2022-12-18T03:27:22.142Z,81.42
2022-12-18T03:33:09.217Z,81.15
2022-12-18T03:47:26.486Z,80.66
2022-12-18T03:52:58.265Z,80.47
2022-12-18T03:58:24.339Z,80.55
2022-12-18T04:04:11.389Z,80.48
2022-12-18T04:09:36.154Z,80.47
2022-12-18T04:14:58.037Z,80.34
2022-12-18T04:20:19.291Z,80.43
2022-12-18T04:25:41.186Z,80.38
2022-12-18T04:31:05.752Z,80.37
2022-12-18T04:36:26.341Z,80.49
2022-12-18T04:41:47.581Z,80.57
2022-12-18T04:47:08.631Z,80.68
2022-12-18T04:52:29.028Z,80.75
2022-12-18T04:57:50.156Z,80.83
2022-12-18T05:03:10.651Z,80.75
2022-12-18T05:08:31.822Z,80.55
2022-12-18T05:13:52.680Z,80.56
2022-12-18T05:19:13.266Z,80.49
2022-12-18T05:24:34.156Z,80.29
2022-12-18T05:29:54.761Z,80.12
2022-12-18T05:35:17.488Z,80.07
2022-12-18T05:40:38.454Z,79.87
2022-12-18T05:46:04.983Z,79.81
2022-12-18T05:51:25.426Z,79.90
2022-12-18T05:56:48.814Z,79.70
2022-12-18T06:02:09.503Z,79.98
2022-12-18T06:07:30.159Z,80.08
2022-12-18T06:12:50.987Z,79.89
2022-12-18T06:18:11.631Z,80.13
2022-12-18T06:23:31.898Z,80.15
2022-12-18T06:28:52.510Z,80.38
2022-12-18T06:34:13.039Z,80.29
2022-12-18T06:39:33.439Z,80.43
2022-12-18T06:44:54.637Z,80.58
2022-12-18T06:50:15.781Z,80.64
2022-12-18T06:55:36.408Z,80.57
2022-12-18T07:01:04.736Z,80.67
2022-12-18T07:06:27.164Z,80.58
2022-12-18T07:11:47.688Z,80.52
2022-12-18T07:17:08.362Z,80.57
2022-12-18T07:22:29.288Z,80.57
2022-12-18T07:27:50.749Z,80.69
2022-12-18T07:33:11.391Z,80.84
2022-12-18T07:38:32.979Z,80.75
2022-12-18T07:43:53.169Z,80.94
2022-12-18T07:49:13.985Z,80.86
2022-12-18T07:54:34.847Z,80.79
2022-12-18T07:59:58.890Z,81.22
2022-12-18T08:05:27.053Z,81.12
2022-12-18T08:10:47.686Z,80.98
2022-12-18T08:16:08.568Z,80.95
2022-12-18T08:21:31.234Z,80.80
2022-12-18T08:27:20.732Z,80.95
2022-12-18T08:32:33.901Z,80.75
2022-12-18T08:37:55.328Z,80.49
2022-12-18T08:43:34.268Z,80.58
2022-12-18T08:48:57.025Z,80.41
2022-12-18T08:54:24.136Z,80.40
2022-12-18T08:59:50.408Z,80.04
2022-12-18T09:05:12.407Z,80.17
2022-12-18T09:10:33.092Z,79.99
2022-12-18T09:15:55.425Z,79.71
2022-12-18T09:21:18.391Z,79.72
2022-12-18T09:26:38.619Z,79.57
2022-12-18T09:32:00.330Z,79.54
2022-12-18T09:37:21.216Z,79.57
2022-12-18T09:42:50.025Z,79.38
2022-12-18T09:48:23.009Z,78.84
2022-12-18T09:53:51.105Z,78.41
2022-12-18T09:59:35.091Z,78.41
2022-12-18T10:04:55.631Z,77.99
2022-12-18T10:10:32.761Z,77.21
2022-12-18T10:16:28.610Z,76.96
2022-12-18T10:22:16.774Z,76.91
2022-12-18T10:27:37.242Z,76.75
2022-12-18T10:33:02.394Z,76.43
2022-12-18T10:38:29.256Z,73.98
2022-12-18T10:44:20.019Z,74.08
2022-12-18T10:49:49.185Z,75.11
2022-12-18T10:55:17.721Z,75.45
2022-12-18T11:00:38.495Z,75.62
2022-12-18T11:06:07.043Z,75.68
2022-12-18T11:11:27.967Z,75.51
2022-12-18T11:17:23.769Z,74.40
2022-12-18T11:22:34.999Z,73.59
2022-12-18T11:27:58.927Z,74.20
2022-12-18T11:33:23.102Z,74.56
2022-12-18T11:38:45.227Z,74.34
2022-12-18T11:44:11.228Z,74.15
2022-12-18T11:49:36.166Z,74.44
2022-12-18T11:55:02.300Z,74.98
2022-12-18T12:00:24.043Z,75.35
2022-12-18T12:06:02.648Z,75.11
2022-12-18T12:11:28.862Z,75.11
2022-12-18T12:16:59.876Z,75.38
2022-12-18T12:22:40.980Z,75.11
2022-12-18T12:28:25.383Z,74.72
2022-12-18T12:34:02.179Z,74.92
2022-12-18T12:39:31.169Z,74.95
2022-12-18T12:44:58.330Z,74.38
2022-12-18T12:50:21.104Z,74.29
2022-12-18T12:55:43.635Z,74.51
2022-12-18T13:01:23.089Z,74.68
2022-12-18T13:06:54.108Z,75.37
2022-12-18T13:12:35.927Z,75.74
2022-12-18T13:18:28.304Z,75.84
2022-12-18T13:23:49.415Z,75.88
2022-12-18T13:29:10.114Z,76.00
2022-12-18T13:34:32.238Z,76.48
2022-12-18T13:39:53.598Z,76.65
2022-12-18T13:45:42.751Z,76.72
2022-12-18T13:51:07.235Z,77.10
2022-12-18T13:56:33.356Z,76.80
2022-12-18T14:01:59.975Z,76.93
2022-12-18T14:07:30.843Z,76.81
2022-12-18T14:13:00.871Z,76.86
2022-12-18T14:18:48.712Z,76.81
2022-12-18T14:24:09.327Z,76.92
2022-12-18T14:29:31.610Z,77.23
2022-12-18T14:34:56.748Z,77.14
2022-12-18T14:40:17.454Z,77.01
2022-12-18T14:45:45.261Z,77.13
2022-12-18T14:51:07.286Z,77.32
2022-12-18T14:56:49.485Z,77.43
2022-12-18T15:02:21.339Z,77.32
2022-12-18T15:07:44.312Z,77.20
2022-12-18T15:13:04.917Z,77.37
2022-12-18T15:18:32.806Z,77.26
2022-12-18T15:23:57.381Z,77.55
2022-12-18T15:29:23.017Z,77.35
2022-12-18T15:34:43.651Z,77.23
2022-12-18T15:40:05.095Z,77.28
2022-12-18T15:45:25.628Z,76.92
2022-12-18T15:50:47.644Z,77.00
2022-12-18T15:56:34.605Z,76.93
2022-12-18T16:01:56.536Z,76.90
2022-12-18T16:07:24.885Z,77.12
2022-12-18T16:12:46.952Z,76.93
2022-12-18T16:18:08.222Z,76.63
2022-12-18T16:23:29.580Z,76.81
2022-12-18T16:28:50.159Z,76.79
2022-12-18T16:34:29.048Z,76.84
2022-12-18T16:39:49.669Z,76.59
2022-12-18T16:45:12.966Z,76.68
2022-12-18T16:50:33.501Z,76.72
2022-12-18T16:55:57.435Z,76.45
2022-12-18T17:01:17.916Z,76.37
2022-12-18T17:06:44.034Z,76.53
2022-12-18T17:12:04.823Z,76.29
2022-12-18T17:17:25.193Z,76.43
2022-12-18T17:22:45.786Z,76.18
2022-12-18T17:28:06.568Z,76.04
2022-12-18T17:33:26.950Z,75.93
2022-12-18T17:38:56.487Z,75.90
2022-12-18T17:44:17.743Z,75.66
2022-12-18T17:49:39.084Z,75.62
2022-12-18T17:54:59.436Z,75.83
2022-12-18T18:00:20.364Z,75.87
2022-12-18T18:05:40.980Z,75.69
2022-12-18T18:11:31.250Z,75.58
2022-12-18T18:16:52.575Z,75.66
2022-12-18T18:22:12.957Z,75.67
2022-12-18T18:27:38.348Z,75.55
2022-12-18T18:32:59.113Z,75.15
2022-12-18T18:38:19.624Z,74.97
2022-12-18T18:43:40.581Z,74.86
2022-12-18T18:49:01.770Z,74.35
2022-12-18T18:54:22.419Z,74.20
2022-12-18T18:59:43.286Z,73.98
2022-12-18T19:05:04.008Z,73.81
2022-12-18T19:10:24.782Z,73.59
2022-12-18T19:15:45.905Z,73.57
2022-12-18T19:21:06.608Z,73.24
2022-12-18T19:26:28.753Z,73.03
2022-12-18T19:31:49.533Z,73.08
2022-12-18T19:37:10.050Z,72.79
2022-12-18T19:42:35.272Z,72.57
2022-12-18T19:48:01.104Z,72.32
2022-12-18T19:53:24.883Z,72.16
2022-12-18T19:58:45.891Z,71.88
2022-12-18T20:04:06.833Z,71.74
2022-12-18T20:09:28.185Z,71.78
2022-12-18T20:14:49.346Z,71.64
2022-12-18T20:20:10.338Z,71.67
2022-12-18T20:25:30.704Z,71.51
2022-12-18T20:30:51.782Z,71.62
2022-12-18T20:36:19.145Z,71.24
2022-12-18T20:41:44.299Z,71.34
2022-12-18T20:54:37.443Z,71.22
2022-12-18T20:59:57.841Z,71.41
2022-12-18T21:05:18.623Z,71.40
2022-12-18T21:10:39.174Z,71.38
2022-12-18T21:16:00.120Z,71.33
2022-12-18T21:21:24.774Z,71.17
2022-12-18T21:26:48.496Z,71.20
2022-12-18T21:32:09.686Z,71.20
2022-12-18T21:37:30.029Z,71.41
2022-12-18T21:43:09.182Z,71.33
2022-12-18T21:48:31.075Z,71.53
2022-12-18T21:53:51.556Z,71.25
2022-12-18T21:59:21.838Z,71.15
2022-12-18T22:04:44.095Z,71.05
2022-12-18T22:10:05.015Z,70.89
2022-12-18T22:15:25.734Z,70.87
2022-12-18T22:20:48.063Z,70.68
2022-12-18T22:26:10.693Z,70.88
2022-12-18T22:31:31.202Z,70.66
2022-12-18T22:36:51.716Z,70.82
2022-12-18T22:42:12.013Z,70.84
2022-12-18T22:47:32.874Z,71.00
2022-12-18T22:52:53.396Z,71.05
2022-12-18T22:58:14.175Z,70.89
2022-12-18T23:03:35.242Z,71.21
2022-12-18T23:08:57.655Z,71.09
2022-12-18T23:14:18.178Z,71.01
2022-12-18T23:19:41.670Z,71.30
2022-12-18T23:25:05.175Z,71.18
2022-12-18T23:30:25.558Z,71.36
2022-12-18T23:35:45.872Z,71.45
2022-12-18T23:41:11.031Z,71.41
2022-12-18T23:46:33.909Z,71.36
2022-12-18T23:51:55.133Z,71.39
2022-12-18T23:57:15.598Z,71.29
